Latest Weather Observations for Darwin Airport

IDD60901

Issued at 11:05 pm CST Sunday 23 November 2014 (issued every 10 minutes, with the page automatically refreshed every 10 minutes)

About weather observations | Map of Darwin area stations | Latest observations for Darwin area | Other Formats
Station Details ID: 014015 Name: DARWIN AIRPORT Lat: -12.42 Lon: 130.89 Height: 30.4 m
Data from the previous 72 hours. | See also: Recent months at Darwin Airport
Date/Time
CST
Tmp

°C
App
Tmp
°C
Dew
Point
°C
Rel
Hum
%
Delta-T

°C
Wind Press
QNH
hPa
Press
MSL
hPa
Rain
since
9 am
mm
Dir
 
Spd
km/h
Gust
km/h
Spd
kts
Gust
kts
23/11:00pm 30.0 33.5 24.9 74 3.6 NNW 15 22 8 12 1010.0 - 0.0
23/10:30pm 30.0 32.8 25.0 74 3.5 NNW 19 24 10 13 1009.9 - 0.0
23/10:00pm 30.2 32.9 25.1 74 3.6 NNW 20 28 11 15 1009.5 - 0.0
23/09:30pm 30.7 32.4 24.1 68 4.6 NNW 22 33 12 18 1009.1 - 0.0
23/09:00pm 30.8 33.3 24.8 70 4.2 NNW 20 28 11 15 1008.9 1008.6 0.0
23/08:30pm 31.1 32.4 22.3 59 6.0 NNW 19 24 10 13 1008.8 - 0.0
23/08:00pm 31.2 32.8 21.4 56 6.6 N 15 20 8 11 1008.1 - 0.0
23/07:30pm 31.6 32.3 20.5 51 7.4 NNE 17 24 9 13 1007.6 - 0.0
23/07:00pm 31.7 32.8 22.0 56 6.6 N 19 26 10 14 1007.2 - 0.0
23/06:30pm 32.7 32.8 21.8 52 7.4 NNE 24 32 13 17 1007.0 - 0.0
23/06:00pm 33.2 32.2 19.6 44 9.0 N 24 28 13 15 1006.8 1006.5 0.0
23/05:30pm 34.0 32.4 19.3 42 9.7 N 26 35 14 19 1006.6 - 0.0
23/05:00pm 34.5 33.4 20.3 43 9.5 N 26 33 14 18 1006.7 - 0.0
23/04:30pm 34.1 33.2 20.7 45 9.0 N 26 32 14 17 1007.2 - 0.0
23/04:00pm 33.7 33.8 21.8 49 8.1 N 24 32 13 17 1007.3 - 0.0
23/03:30pm 34.3 34.6 22.9 51 7.9 N 26 32 14 17 1007.8 - 0.0
23/03:00pm 33.3 33.9 24.2 59 6.4 N 28 33 15 18 1008.2 1007.9 0.0
23/02:30pm 33.3 34.4 23.7 57 6.7 NNW 24 30 13 16 1008.6 - 0.0
23/02:00pm 33.3 34.8 23.7 57 6.7 NNW 22 28 12 15 1009.1 - 0.0
23/01:30pm 33.1 35.2 23.1 55 6.9 NNW 17 24 9 13 1009.3 - 0.0
23/01:00pm 32.4 34.2 23.3 58 6.3 NW 19 28 10 15 1009.9 - 0.0
23/12:30pm 32.2 34.4 23.2 59 6.2 NNW 17 22 9 12 1010.4 - 0.0
23/12:00pm 32.2 33.9 23.4 59 6.1 WNW 20 28 11 15 1010.9 1010.6 0.0
23/11:30am 31.6 33.4 23.5 62 5.6 W 20 26 11 14 1011.2 - 0.0
23/11:00am 33.2 34.8 21.4 50 8.0 N 15 22 8 12 1011.6 - 0.0
23/10:30am 32.3 35.2 22.4 56 6.8 N 11 17 6 9 1011.8 - 0.0
23/10:00am 31.7 34.2 21.8 55 6.7 NNE 11 19 6 10 1012.0 - 0.0
23/09:30am 31.4 33.7 22.1 57 6.3 NE 13 19 7 10 1012.1 - 0.0
23/09:00am 31.0 32.5 22.0 58 6.1 NNE 17 20 9 11 1012.1 1011.8 0.0
23/08:30am 30.6 32.7 22.4 61 5.6 NE 15 20 8 11 1011.9 - 0.0
23/08:00am 29.9 32.0 22.4 64 5.1 NE 15 20 8 11 1012.0 - 0.0
23/07:30am 28.7 33.0 24.2 76 3.1 NE 9 11 5 6 1011.7 - 0.0
23/07:00am 27.4 31.7 24.2 83 2.2 ENE 9 11 5 6 1011.4 - 0.0
23/06:30am 26.3 30.4 24.0 87 1.6 NE 9 13 5 7 1011.0 - 0.0
23/06:00am 26.0 30.1 24.0 89 1.4 ENE 9 11 5 6 1010.7 1010.4 0.0
23/05:30am 25.9 29.5 23.7 88 1.5 ENE 11 13 6 7 1010.3 - 0.0
23/05:00am 26.0 29.8 23.5 86 1.7 ENE 9 11 5 6 1010.1 - 0.0
23/04:30am 26.3 30.5 23.5 84 1.9 NE 7 9 4 5 1010.0 - 0.0
23/04:00am 26.8 31.1 23.6 82 2.2 NE 7 9 4 5 1009.9 - 0.0
23/03:30am 26.7 31.3 23.8 84 2.0 NE 6 7 3 4 1009.7 - 0.0
23/03:00am 26.8 30.8 23.7 83 2.1 NNE 9 9 5 5 1009.8 1009.5 0.0
23/02:30am 27.2 31.9 23.9 82 2.3 NW 6 7 3 4 1010.0 - 0.0
23/02:00am 28.0 32.5 24.0 79 2.8 NNW 7 9 4 5 1010.0 - 0.0
23/01:30am 28.8 32.9 23.9 75 3.4 NNW 9 11 5 6 1010.3 - 0.0
23/01:00am 29.0 32.1 23.6 72 3.7 NNW 13 17 7 9 1010.6 - 0.0
23/12:30am 29.1 32.3 23.7 72 3.7 NNW 13 17 7 9 1010.9 - 0.0
23/12:00am 29.4 31.9 23.8 72 3.9 NNW 17 22 9 12 1010.9 1010.6 0.0
 
Date/Time
CST
Tmp

°C
App
Tmp
°C
Dew
Point
°C
Rel
Hum
%
Delta-T

°C
Wind Press
QNH
hPa
Press
MSL
hPa
Rain
since
9 am
mm
Dir
 
Spd
km/h
Gust
km/h
Spd
kts
Gust
kts
22/11:30pm 29.7 31.8 23.8 70 4.1 N 19 26 10 14 1011.0 - 0.0
22/11:00pm 29.8 31.6 24.2 72 3.9 NW 22 28 12 15 1010.8 - 0.0
22/10:30pm 30.0 31.3 24.0 70 4.2 NW 24 32 13 17 1010.6 - 0.0
22/10:00pm 30.2 30.6 23.7 68 4.5 NW 28 33 15 18 1010.5 - 0.0
22/09:30pm 30.4 31.8 24.2 69 4.3 NNW 24 32 13 17 1010.2 - 0.0
22/09:00pm 30.4 31.7 24.1 69 4.4 N 24 30 13 16 1009.9 1009.6 0.0
22/08:30pm 30.2 32.0 21.8 60 5.7 NE 15 17 8 9 1009.7 - 0.0
22/08:00pm 31.1 33.0 21.3 56 6.6 NNE 13 15 7 8 1009.7 - 0.0
22/07:30pm 31.5 34.3 22.3 58 6.3 N 11 17 6 9 1009.3 - 0.0
22/07:00pm 31.8 35.3 22.9 59 6.1 WNW 9 13 5 7 1009.1 - 0.0
22/06:30pm 32.1 34.9 23.0 58 6.3 NNW 13 17 7 9 1008.5 - 0.0
22/06:00pm 32.7 34.6 22.0 53 7.3 NNW 15 19 8 10 1008.1 1007.8 0.0
22/05:30pm 33.3 34.3 21.0 48 8.3 NNW 17 22 9 12 1007.9 - 0.0
22/05:00pm 33.5 34.3 21.4 49 8.2 N 19 24 10 13 1007.5 - 0.0
22/04:30pm 32.6 34.0 21.9 53 7.3 NNE 17 20 9 11 1007.3 - 0.0
22/04:15pm 31.5 32.9 22.8 60 6.0 NNE 20 30 11 16 1007.6 - 0.0
22/04:00pm 30.6 30.4 24.0 68 4.6 ENE 32 44 17 24 1008.0 - 0.0
22/03:57pm 31.0 28.8 22.2 59 6.0 ENE 37 44 20 24 1007.9 - 0.0
22/03:49pm 34.4 33.9 20.7 44 9.2 N 24 30 13 16 1008.3 - 0.0
22/03:30pm 34.2 34.1 21.4 47 8.7 NNW 24 30 13 16 1008.1 - 0.0
22/03:00pm 34.3 34.2 21.5 47 8.7 NNW 24 32 13 17 1008.2 1007.9 0.0
22/02:30pm 33.8 34.6 23.1 53 7.4 N 24 32 13 17 1009.0 - 0.0
22/02:00pm 34.2 34.7 22.6 50 8.0 N 24 32 13 17 1009.5 - 0.0
22/01:30pm 33.8 35.1 22.6 52 7.7 NNW 20 28 11 15 1009.9 - 0.0
22/01:00pm 32.6 34.2 22.9 56 6.7 N 19 26 10 14 1010.3 - 0.0
22/12:30pm 31.6 33.1 23.0 60 5.9 N 20 26 11 14 1011.0 - 0.0
22/12:00pm 31.5 32.9 22.8 60 6.0 NNW 20 26 11 14 1011.3 1011.0 0.0
22/11:30am 31.4 32.6 22.5 59 6.1 WNW 20 24 11 13 1011.7 - 0.0
22/11:00am 32.2 33.2 22.1 55 6.9 NW 20 26 11 14 1012.0 - 0.0
22/10:30am 32.3 35.2 21.7 53 7.2 NNW 9 13 5 7 1012.2 - 0.0
22/10:00am 31.5 33.7 21.9 56 6.5 ESE 13 15 7 8 1012.4 - 0.0
22/09:30am 31.2 34.0 21.6 56 6.5 NNE 9 11 5 6 1012.5 - 0.0
22/09:00am 30.4 34.1 23.3 66 4.9 ENE 9 13 5 7 1012.3 1012.0 0.0
22/08:30am 30.8 34.6 23.4 64 5.1 ENE 9 15 5 8 1012.1 - 0.0
22/08:00am 29.9 33.3 24.0 70 4.1 NE 13 15 7 8 1011.8 - 0.0
22/07:30am 28.8 32.2 24.0 75 3.3 ENE 13 17 7 9 1011.6 - 0.0
22/07:00am 27.3 31.1 24.0 82 2.3 ENE 11 13 6 7 1011.1 - 0.0
22/06:30am 26.6 30.6 23.8 84 1.9 E 9 11 5 6 1010.5 - 0.0
22/06:00am 26.1 30.5 23.8 87 1.6 E 7 9 4 5 1010.1 1009.8 0.0
22/05:30am 26.4 32.1 23.8 85 1.8 CALM 0 0 0 0 1009.9 - 0.0
22/05:00am 26.7 31.1 23.8 84 2.0 N 7 9 4 5 1009.8 - 0.0
22/04:30am 27.1 31.4 23.6 81 2.4 NNW 7 7 4 4 1009.4 - 0.0
22/04:00am 28.3 32.3 23.8 76 3.1 WNW 9 13 5 7 1009.2 - 0.0
22/03:30am 28.5 31.6 23.6 75 3.4 NW 13 17 7 9 1008.9 - 0.0
22/03:00am 28.2 31.4 23.1 74 3.5 NW 11 15 6 8 1008.9 1008.6 0.0
22/02:30am 28.1 31.7 23.8 77 3.0 NNW 11 15 6 8 1009.0 - 0.0
22/02:00am 28.5 32.1 23.7 75 3.3 NNW 11 15 6 8 1009.1 - 0.0
22/01:30am 28.7 31.6 23.2 72 3.8 NNW 13 17 7 9 1009.4 - 0.0
22/01:00am 28.8 31.5 22.9 70 4.0 NNW 13 17 7 9 1009.7 - 0.0
22/12:30am 29.0 32.0 22.7 69 4.3 NNW 11 13 6 7 1010.3 - 0.0
22/12:00am 28.9 31.6 22.9 70 4.1 N 13 15 7 8 1010.7 1010.4 0.0
 
Date/Time
CST
Tmp

°C
App
Tmp
°C
Dew
Point
°C
Rel
Hum
%
Delta-T

°C
Wind Press
QNH
hPa
Press
MSL
hPa
Rain
since
9 am
mm
Dir
 
Spd
km/h
Gust
km/h
Spd
kts
Gust
kts
21/11:30pm 29.4 32.4 22.7 67 4.6 NNW 11 15 6 8 1010.9 - 0.0
21/11:00pm 29.8 32.9 22.8 66 4.8 NNW 11 15 6 8 1011.0 - 0.0
21/10:30pm 29.9 32.5 24.0 70 4.1 NW 17 22 9 12 1010.7 - 0.0
21/10:00pm 29.9 32.0 23.8 70 4.2 NW 19 22 10 12 1010.3 - 0.0
21/09:30pm 29.9 32.2 23.5 68 4.4 NNW 17 24 9 13 1010.1 - 0.0
21/09:00pm 30.0 32.0 23.6 68 4.4 NW 19 26 10 14 1009.6 1009.3 0.0
21/08:30pm 30.0 31.7 24.0 70 4.2 WNW 22 28 12 15 1009.3 - 0.0
21/08:00pm 30.6 33.0 24.6 70 4.2 NW 20 26 11 14 1008.8 - 0.0
21/07:30pm 31.0 32.7 22.4 60 5.9 N 17 22 9 12 1008.4 - 0.0
21/07:00pm 31.7 32.3 21.3 54 7.0 NNW 20 26 11 14 1008.2 - 0.0
21/06:30pm 32.8 32.7 19.6 45 8.7 NNW 19 24 10 13 1007.9 - 0.0
21/06:00pm 34.3 32.5 15.5 32 11.8 NNE 19 24 10 13 1007.9 1007.6 0.0
21/05:30pm 34.5 32.0 14.2 29 12.5 N 20 28 11 15 1007.5 - 0.0
21/05:00pm 34.3 33.5 19.3 41 9.9 N 22 33 12 18 1007.6 - 0.0
21/04:30pm 34.1 33.8 19.5 42 9.7 N 20 26 11 14 1007.7 - 0.0
21/04:00pm 33.3 33.5 20.6 47 8.5 N 20 33 11 18 1007.8 - 0.0
21/03:30pm 33.8 34.6 21.4 48 8.4 NW 19 24 10 13 1008.1 - 0.0
21/03:00pm 34.2 35.5 22.3 50 8.2 NNW 19 26 10 14 1008.2 1007.9 0.0
21/02:30pm 33.6 34.7 22.4 52 7.7 N 20 28 11 15 1008.6 - 0.0
21/02:00pm 33.7 34.8 22.3 51 7.8 N 20 30 11 16 1009.1 - 0.0
21/01:30pm 33.3 34.7 22.5 53 7.4 NNW 19 26 10 14 1009.5 - 0.0
21/01:00pm 32.8 34.2 22.8 55 6.9 NW 20 28 11 15 1009.9 - 0.0
21/12:30pm 31.7 33.3 22.8 59 6.1 NW 19 28 10 15 1010.4 - 0.0
21/12:00pm 32.1 34.2 23.1 59 6.2 WNW 17 26 9 14 1010.9 1010.6 0.0
21/11:30am 31.6 33.3 23.0 60 5.9 WNW 19 30 10 16 1011.2 - 0.0
21/11:00am 32.2 33.8 23.2 59 6.2 W 20 26 11 14 1011.6 - 0.0
21/10:30am 30.6 33.5 23.2 64 5.1 WNW 13 17 7 9 1011.9 - 0.0
21/10:00am 30.6 33.5 23.2 64 5.1 NNW 13 19 7 10 1012.2 - 0.0
21/09:30am 30.7 34.7 22.8 62 5.4 NNW 6 9 3 5 1012.2 - 0.0
21/09:00am 31.0 34.5 22.8 61 5.6 N 9 11 5 6 1012.2 1011.9 0.0
21/08:30am 30.3 34.3 22.7 64 5.2 SSW 6 13 3 7 1012.1 - 0.0
21/08:00am 29.7 34.1 22.8 66 4.7 SE 4 9 2 5 1011.9 - 0.0
21/07:30am 29.3 33.7 23.8 72 3.8 NNE 7 11 4 6 1011.6 - 0.0
21/07:00am 28.3 34.3 24.3 79 2.8 CALM 0 0 0 0 1011.4 - 0.0
21/06:30am 26.7 31.3 24.1 86 1.8 NE 7 9 4 5 1010.8 - 0.0
21/06:00am 26.8 31.3 24.0 84 1.9 N 7 9 4 5 1010.5 1010.2 0.0
21/05:30am 27.0 31.8 24.1 84 2.0 N 6 7 3 4 1010.2 - 0.0
21/05:00am 27.4 31.8 24.4 84 2.1 N 9 11 5 6 1010.1 - 0.0
21/04:30am 27.6 32.4 24.4 83 2.2 N 7 9 4 5 1009.8 - 0.0
21/04:00am 28.0 32.7 24.3 80 2.6 NNW 7 9 4 5 1009.6 - 0.0
21/03:30am 28.4 32.9 23.9 76 3.1 NW 7 9 4 5 1009.4 - 0.0
21/03:00am 28.9 32.9 23.8 74 3.5 NNW 9 11 5 6 1009.6 1009.3 0.0
21/02:30am 28.8 32.9 23.9 75 3.4 NNW 9 13 5 7 1009.8 - 0.0
21/02:00am 29.0 32.3 23.8 73 3.6 NW 13 15 7 8 1009.8 - 0.0
21/01:30am 29.1 31.9 23.7 72 3.7 NW 15 19 8 10 1009.7 - 0.0
21/01:00am 29.1 31.5 23.7 72 3.7 NW 17 20 9 11 1009.9 - 0.0
21/12:30am 29.2 31.6 24.2 74 3.5 NNW 19 24 10 13 1009.9 - 0.0
21/12:00am 29.3 31.6 24.1 73 3.6 NNW 19 26 10 14 1010.1 1009.8 0.0
 
Date/Time
CST
Tmp

°C
App
Tmp
°C
Dew
Point
°C
Rel
Hum
%
Delta-T

°C
Wind Press
QNH
hPa
Press
MSL
hPa
Rain
since
9 am
mm
Dir
 
Spd
km/h
Gust
km/h
Spd
kts
Gust
kts
20/11:30pm 29.2 32.5 24.5 76 3.3 NNW 15 20 8 11 1010.1 - 0.0

Latest Capital City Observations: Canberra | Sydney | Melbourne | Brisbane | Adelaide | Perth | Hobart | Darwin

Other Formats:

Comma delimited format used in spreadsheet applications
http://www.bom.gov.au/fwo/IDD60901/IDD60901.94120.axf

JavaScript Object Notation format (JSON) in row-major order
http://www.bom.gov.au/fwo/IDD60901/IDD60901.94120.json